Time;durP1;ratioP1;P1;durP2;ratioP2;P2;SDS_P1;SDS_P2;PMS_P1;PMS_P2;Temp;Humidity;BMP_temperature;BMP_pressure;BME280_temperature;BME280_humidity;BME280_pressure;Samples;Min_cycle;Max_cycle;Signal;HPM_P1;HPM_P2
2022/12/20 00:01:13;;;;;;;19.15;9.15;;;8.50;99.90;;;;;;4756212;30;20054;-66
2022/12/20 00:03:39;;;;;;;22.13;9.60;;;8.50;99.90;;;;;;4761424;30;20048;-65
2022/12/20 00:06:05;;;;;;;21.08;9.68;;;8.60;99.90;;;;;;4742208;30;20071;-66
2022/12/20 00:08:31;;;;;;;19.38;9.52;;;8.60;99.90;;;;;;4744731;30;20075;-66
2022/12/20 00:11:00;;;;;;;21.35;9.35;;;8.60;99.90;;;;;;4758198;30;20469;-67
2022/12/20 00:13:26;;;;;;;22.75;9.00;;;8.60;99.90;;;;;;4758223;30;20676;-67
2022/12/20 00:16:13;;;;;;;19.17;9.27;;;8.60;99.90;;;;;;4743572;30;20055;-65
2022/12/20 00:18:39;;;;;;;22.80;9.18;;;8.70;99.90;;;;;;4756973;30;20051;-67
2022/12/20 00:21:08;;;;;;;20.15;8.68;;;8.70;99.90;;;;;;4746039;30;20412;-66
2022/12/20 00:23:35;;;;;;;17.77;9.52;;;8.70;99.90;;;;;;4743431;30;20506;-68
2022/12/20 00:26:12;;;;;;;19.35;9.10;;;8.80;99.90;;;;;;4740790;30;20362;-67
2022/12/20 00:28:39;;;;;;;19.65;9.13;;;8.80;99.90;;;;;;4740860;30;20040;-65
2022/12/20 00:31:06;;;;;;;19.80;9.05;;;8.90;99.90;;;;;;4757690;30;20126;-66
2022/12/20 00:33:33;;;;;;;18.92;8.98;;;8.90;99.90;;;;;;4746690;30;20086;-66
2022/12/20 00:35:59;;;;;;;16.15;8.68;;;8.80;99.90;;;;;;4735596;30;20132;-66
2022/12/20 00:38:25;;;;;;;18.02;8.40;;;8.80;99.90;;;;;;4739737;30;20123;-69
2022/12/20 00:41:09;;;;;;;19.60;9.15;;;8.90;99.90;;;;;;4727488;30;1052966;-68
2022/12/20 00:43:36;;;;;;;25.67;9.07;;;8.80;99.90;;;;;;4787313;29;20059;-66
2022/12/20 00:46:02;;;;;;;19.20;8.40;;;8.80;99.90;;;;;;4760938;29;20035;-66
2022/12/20 00:48:30;;;;;;;19.85;8.88;;;8.80;99.90;;;;;;4761862;30;20535;-66
2022/12/20 00:51:05;;;;;;;18.10;8.40;;;8.70;99.90;;;;;;4759881;30;20039;-66
2022/12/20 00:53:31;;;;;;;16.73;8.93;;;8.70;99.90;;;;;;4745013;30;20742;-66
2022/12/20 00:55:57;;;;;;;14.75;8.48;;;8.70;99.90;;;;;;4759469;30;20447;-65
2022/12/20 00:58:25;;;;;;;17.38;8.55;;;8.60;99.90;;;;;;4758186;30;20071;-65
2022/12/20 01:00:51;;;;;;;20.88;8.57;;;8.60;99.90;;;;;;4771487;29;22277;-67
2022/12/20 01:03:16;;;;;;;20.77;8.63;;;8.60;99.90;;;;;;4745779;30;20105;-66
2022/12/20 01:06:00;;;;;;;16.80;8.63;;;8.70;99.90;;;;;;4773987;29;20700;-66
2022/12/20 01:08:28;;;;;;;18.63;8.55;;;8.70;99.90;;;;;;4776002;29;20047;-66
2022/12/20 01:11:14;;;;;;;20.23;8.75;;;8.60;99.90;;;;;;4760582;30;20048;-66
2022/12/20 01:13:44;;;;;;;17.05;8.48;;;8.60;99.90;;;;;;4745708;30;20043;-65
2022/12/20 01:16:17;;;;;;;18.67;8.32;;;8.60;99.90;;;;;;4758159;30;20059;-66
2022/12/20 01:18:44;;;;;;;18.05;8.63;;;8.60;99.90;;;;;;4761734;30;20593;-67
2022/12/20 01:21:13;;;;;;;15.85;8.07;;;8.70;99.90;;;;;;4758165;30;20309;-66
2022/12/20 01:23:39;;;;;;;15.82;8.10;;;8.60;99.90;;;;;;4761132;30;20118;-66
2022/12/20 01:26:10;;;;;;;19.08;8.23;;;8.60;99.90;;;;;;4760985;30;20051;-66
2022/12/20 01:28:37;;;;;;;18.65;8.63;;;8.60;99.90;;;;;;4762638;30;20047;-66
2022/12/20 01:31:12;;;;;;;21.83;9.95;;;8.60;99.90;;;;;;4758591;30;20094;-66
2022/12/20 01:33:38;;;;;;;14.88;8.20;;;8.60;99.90;;;;;;4773885;29;20050;-67
2022/12/20 01:36:06;;;;;;;16.25;7.82;;;8.70;99.90;;;;;;4772239;29;20050;-66
2022/12/20 01:38:32;;;;;;;20.77;8.55;;;8.70;99.90;;;;;;4824897;29;20042;-67
2022/12/20 01:40:59;;;;;;;17.23;8.00;;;8.60;99.90;;;;;;4876276;29;20499;-69
2022/12/20 01:43:44;;;;;;;15.70;7.97;;;8.60;99.90;;;;;;4904996;29;20395;-66
2022/12/20 01:46:10;;;;;;;19.13;8.27;;;8.60;99.90;;;;;;4869324;29;20044;-65
2022/12/20 01:48:36;;;;;;;15.32;8.20;;;8.70;99.90;;;;;;4871820;29;20104;-66
2022/12/20 01:51:03;;;;;;;16.48;7.97;;;8.60;99.90;;;;;;4855125;29;20476;-68
2022/12/20 01:53:30;;;;;;;14.80;7.97;;;8.70;99.90;;;;;;4885343;29;21192;-66
2022/12/20 01:55:59;;;;;;;16.50;7.80;;;8.70;99.90;;;;;;4884751;29;20072;-68
2022/12/20 01:58:25;;;;;;;18.45;8.40;;;8.80;99.90;;;;;;4901911;29;20047;-66
2022/12/20 02:00:50;;;;;;;15.90;8.25;;;8.80;99.90;;;;;;4867975;29;20041;-67
2022/12/20 02:03:16;;;;;;;18.42;8.88;;;8.80;99.90;;;;;;4869106;29;20056;-66
2022/12/20 02:05:44;;;;;;;14.85;8.07;;;8.80;99.90;;;;;;4869402;29;20084;-68
2022/12/20 02:08:12;;;;;;;15.00;7.97;;;8.70;99.90;;;;;;4873189;29;20080;-65
2022/12/20 02:11:09;;;;;;;20.23;8.55;;;8.80;99.90;;;;;;4872808;29;20052;-67
2022/12/20 02:14:00;;;;;;;20.23;8.13;;;8.90;99.90;;;;;;4881079;29;20377;-66
2022/12/20 02:16:32;;;;;;;15.93;7.90;;;8.80;99.90;;;;;;4871811;29;20041;-66
2022/12/20 02:19:25;;;;;;;18.83;7.60;;;8.90;99.90;;;;;;4881918;29;20040;-66
2022/12/20 02:22:16;;;;;;;16.42;8.02;;;8.90;99.90;;;;;;4884632;29;20399;-67
2022/12/20 02:25:13;;;;;;;16.52;7.38;;;8.90;99.90;;;;;;4885239;29;20048;-66
2022/12/20 02:28:04;;;;;;;17.20;8.00;;;9.00;99.90;;;;;;4885530;29;20052;-65
2022/12/20 02:30:37;;;;;;;18.27;7.53;;;9.00;99.90;;;;;;4881331;29;20159;-65
2022/12/20 02:33:03;;;;;;;;;;;9.00;99.90;;;;;;4881437;29;20063;-66
2022/12/20 02:35:32;;;;;;;15.82;7.88;;;9.10;99.90;;;;;;4884137;29;19967;-66
2022/12/20 02:38:01;;;;;;;20.40;8.82;;;9.00;99.90;;;;;;4894565;28;20039;-66
2022/12/20 02:40:33;;;;;;;17.92;8.25;;;9.00;99.90;;;;;;4964291;28;20746;-66
2022/12/20 02:43:03;;;;;;;18.58;8.10;;;9.10;99.90;;;;;;5003591;28;20045;-68
2022/12/20 02:45:34;;;;;;;15.98;7.72;;;9.00;99.90;;;;;;5015403;28;20045;-72
2022/12/20 02:48:10;;;;;;;21.05;8.93;;;9.10;99.90;;;;;;5018076;28;20064;-70
2022/12/20 02:50:39;;;;;;;15.93;8.02;;;9.00;99.90;;;;;;5042310;28;21192;-72
2022/12/20 02:53:06;;;;;;;23.83;8.88;;;8.90;99.90;;;;;;5020995;28;20045;-70
2022/12/20 02:55:54;;;;;;;20.17;8.95;;;9.00;99.90;;;;;;5023684;28;20056;-72
2022/12/20 02:58:33;;;;;;;19.65;8.32;;;9.10;99.90;;;;;;5021492;28;20041;-72
2022/12/20 03:01:03;;;;;;;19.92;8.50;;;9.00;99.90;;;;;;5023019;28;20051;-71
2022/12/20 03:03:31;;;;;;;21.73;8.70;;;9.10;99.90;;;;;;5038873;28;20110;-72
2022/12/20 03:05:57;;;;;;;17.55;9.10;;;9.00;99.90;;;;;;5026074;28;20037;-70
2022/12/20 03:08:22;;;;;;;20.67;8.68;;;9.00;99.90;;;;;;5019241;28;20056;-71
2022/12/20 03:10:49;;;;;;;17.38;8.55;;;9.10;99.90;;;;;;5041112;28;20052;-68
2022/12/20 03:13:15;;;;;;;19.17;8.85;;;9.00;99.90;;;;;;5034385;28;20119;-69
2022/12/20 03:15:41;;;;;;;20.42;8.80;;;9.00;99.90;;;;;;5023241;28;20082;-70
2022/12/20 03:18:07;;;;;;;24.02;8.77;;;9.00;99.90;;;;;;5021797;28;20033;-69
2022/12/20 03:20:32;;;;;;;18.27;8.45;;;9.10;99.90;;;;;;5023613;28;20041;-70
2022/12/20 03:22:58;;;;;;;19.95;8.27;;;9.00;99.90;;;;;;5017483;28;20372;-71
2022/12/20 03:25:24;;;;;;;16.17;8.52;;;9.00;99.90;;;;;;5020516;28;20044;-71
2022/12/20 03:27:50;;;;;;;19.63;8.57;;;9.00;99.90;;;;;;5019828;28;20049;-69
2022/12/20 03:30:15;;;;;;;16.33;8.48;;;9.00;99.90;;;;;;5007148;28;20036;-70
2022/12/20 03:32:41;;;;;;;18.63;8.05;;;9.00;99.90;;;;;;5021849;28;20040;-71
2022/12/20 03:35:07;;;;;;;18.15;7.75;;;9.10;99.90;;;;;;5045537;28;20392;-69
2022/12/20 03:37:32;;;;;;;15.48;7.97;;;9.00;99.90;;;;;;5028048;28;20475;-71
2022/12/20 03:39:58;;;;;;;19.05;8.15;;;9.00;99.90;;;;;;5045260;28;20544;-69
2022/12/20 03:42:23;;;;;;;17.85;8.63;;;8.90;99.90;;;;;;5026930;28;20029;-69
2022/12/20 03:44:49;;;;;;;19.27;8.05;;;9.00;99.90;;;;;;5032900;28;20036;-69
2022/12/20 03:47:15;;;;;;;16.75;8.77;;;9.00;99.90;;;;;;5047253;28;20067;-70
2022/12/20 03:49:40;;;;;;;16.00;8.60;;;9.10;99.90;;;;;;5043472;28;20373;-69
2022/12/20 03:52:06;;;;;;;17.73;8.75;;;9.10;99.90;;;;;;5043790;28;20120;-69
2022/12/20 03:54:31;;;;;;;20.25;9.07;;;9.00;99.90;;;;;;5040270;28;20087;-68
2022/12/20 03:56:57;;;;;;;19.52;8.80;;;9.10;99.90;;;;;;5059751;28;20111;-69
2022/12/20 03:59:23;;;;;;;18.73;9.07;;;9.10;99.90;;;;;;5027782;28;20478;-71
2022/12/20 04:01:49;;;;;;;19.40;9.13;;;9.00;99.90;;;;;;5040942;28;20669;-71
2022/12/20 04:04:15;;;;;;;20.83;9.65;;;9.10;99.90;;;;;;5043696;28;20123;-67
2022/12/20 04:06:41;;;;;;;18.95;9.40;;;9.00;99.90;;;;;;5042201;28;20045;-69
2022/12/20 04:09:07;;;;;;;20.58;9.45;;;9.10;99.90;;;;;;5043242;28;20451;-68
2022/12/20 04:11:32;;;;;;;20.95;9.80;;;9.10;99.90;;;;;;5042340;28;21535;-69
2022/12/20 04:13:58;;;;;;;20.63;9.82;;;9.10;99.90;;;;;;5039622;28;20673;-70
2022/12/20 04:16:27;;;;;;;19.20;9.98;;;9.10;99.90;;;;;;5043484;28;20044;-67
2022/12/20 04:18:53;;;;;;;23.20;9.55;;;9.10;99.90;;;;;;5043992;28;20037;-67
2022/12/20 04:21:28;;;;;;;25.55;9.75;;;9.10;99.90;;;;;;5042444;28;20506;-67
2022/12/20 04:23:53;;;;;;;21.42;9.90;;;9.00;99.90;;;;;;5044214;28;20029;-67
2022/12/20 04:26:19;;;;;;;25.58;9.25;;;9.00;99.90;;;;;;5043690;28;20033;-67
2022/12/20 04:28:45;;;;;;;19.60;9.15;;;9.00;99.90;;;;;;5023371;28;20025;-69
2022/12/20 04:31:11;;;;;;;24.33;9.65;;;9.10;99.90;;;;;;5041357;28;20090;-68
2022/12/20 04:33:37;;;;;;;18.80;8.98;;;9.10;99.90;;;;;;5042609;28;20123;-67
2022/12/20 04:36:03;;;;;;;15.32;8.90;;;9.10;99.90;;;;;;5044469;28;20080;-67
2022/12/20 04:38:29;;;;;;;21.08;8.75;;;9.20;99.90;;;;;;5044826;28;20346;-67
2022/12/20 04:40:55;;;;;;;21.25;9.13;;;9.20;99.90;;;;;;5041209;28;20119;-67
2022/12/20 04:43:22;;;;;;;17.60;9.07;;;9.20;99.90;;;;;;5043815;28;20052;-68
2022/12/20 04:45:50;;;;;;;19.55;9.15;;;9.30;99.90;;;;;;5041424;28;20119;-67
2022/12/20 04:48:15;;;;;;;18.38;8.80;;;9.20;99.90;;;;;;5057457;28;20045;-67
2022/12/20 04:50:41;;;;;;;20.70;8.50;;;9.30;99.90;;;;;;5041999;28;20052;-67
2022/12/20 04:55:55;;;;;;;17.73;8.50;;;9.40;99.90;;;;;;5045351;28;20052;-67
2022/12/20 04:58:20;;;;;;;17.67;8.63;;;9.40;99.90;;;;;;5042556;28;20037;-68
2022/12/20 05:00:46;;;;;;;16.27;8.63;;;9.40;99.90;;;;;;5042421;28;20087;-67
2022/12/20 05:03:13;;;;;;;21.05;8.93;;;9.40;99.90;;;;;;5032771;28;20547;-67
2022/12/20 05:05:38;;;;;;;16.52;7.93;;;9.40;99.90;;;;;;5043705;28;21370;-68
2022/12/20 05:08:04;;;;;;;16.63;8.63;;;9.50;99.90;;;;;;5042545;28;20047;-67
2022/12/20 05:10:30;;;;;;;16.08;8.27;;;9.40;99.90;;;;;;5044031;28;20048;-65
2022/12/20 05:12:55;;;;;;;20.90;8.90;;;9.40;99.90;;;;;;5041729;28;20029;-68
2022/12/20 05:15:21;;;;;;;17.23;8.05;;;9.40;99.90;;;;;;5040743;28;20025;-69
2022/12/20 05:17:46;;;;;;;18.80;8.30;;;9.40;99.90;;;;;;5058028;28;20474;-68
2022/12/20 05:20:12;;;;;;;18.88;8.18;;;9.40;99.90;;;;;;5043214;28;20051;-67
2022/12/20 05:28:06;;;;;;;18.90;8.27;;;9.50;99.90;;;;;;5059486;28;20060;-66
2022/12/20 05:30:32;;;;;;;17.95;7.72;;;9.50;99.90;;;;;;5026615;28;20044;-69
2022/12/20 05:32:58;;;;;;;18.42;7.93;;;9.50;99.90;;;;;;5042033;28;20170;-66
2022/12/20 05:35:23;;;;;;;16.25;7.65;;;9.50;99.90;;;;;;5042437;28;20052;-67
2022/12/20 05:37:49;;;;;;;17.52;8.50;;;9.50;99.90;;;;;;5040973;28;20033;-69
2022/12/20 05:40:15;;;;;;;17.00;8.30;;;9.50;99.90;;;;;;5040216;28;20040;-66
2022/12/20 05:42:40;;;;;;;16.38;7.68;;;9.50;99.90;;;;;;5040368;28;20091;-69
2022/12/20 05:45:06;;;;;;;22.38;7.68;;;9.50;99.90;;;;;;5042920;28;20044;-67
2022/12/20 05:47:32;;;;;;;16.17;7.82;;;9.50;99.90;;;;;;5055831;28;20572;-68
2022/12/20 05:50:01;;;;;;;18.15;8.00;;;9.50;99.90;;;;;;5038664;28;20037;-67
2022/12/20 05:52:26;;;;;;;19.10;7.93;;;9.60;99.90;;;;;;5040519;28;20087;-67
2022/12/20 05:54:52;;;;;;;19.40;7.78;;;9.40;99.90;;;;;;5040222;28;20029;-66
2022/12/20 05:57:18;;;;;;;16.23;8.23;;;9.50;99.90;;;;;;5041430;28;20048;-67
2022/12/20 05:59:43;;;;;;;15.52;7.82;;;9.60;99.90;;;;;;5026217;28;20049;-67
2022/12/20 06:02:10;;;;;;;17.80;8.35;;;9.50;99.90;;;;;;5040398;28;20047;-66
2022/12/20 06:04:37;;;;;;;18.27;8.75;;;9.60;99.90;;;;;;5022909;28;20045;-68
2022/12/20 06:07:04;;;;;;;21.67;8.52;;;9.60;99.90;;;;;;5044963;28;20040;-68
2022/12/20 06:09:30;;;;;;;17.17;8.30;;;9.60;99.90;;;;;;5041717;28;20422;-69
2022/12/20 06:11:56;;;;;;;19.17;8.45;;;9.60;99.90;;;;;;5048216;28;20395;-68
2022/12/20 06:14:21;;;;;;;20.27;7.97;;;9.60;99.90;;;;;;5040772;28;20033;-67
2022/12/20 06:16:47;;;;;;;17.08;8.23;;;9.70;99.90;;;;;;5037327;28;20025;-70
2022/12/20 06:19:13;;;;;;;17.85;8.43;;;9.70;99.90;;;;;;5023417;28;20134;-68
2022/12/20 06:21:38;;;;;;;19.60;8.18;;;9.70;99.90;;;;;;5037416;28;20049;-68
2022/12/20 06:24:05;;;;;;;19.75;8.57;;;9.70;99.90;;;;;;5038335;28;20065;-67
2022/12/20 06:26:35;;;;;;;21.38;8.60;;;9.70;99.90;;;;;;5042938;28;20136;-68
2022/12/20 06:29:01;;;;;;;21.17;9.68;;;9.70;99.90;;;;;;5041276;28;20655;-67
2022/12/20 06:31:27;;;;;;;19.23;9.50;;;9.70;99.90;;;;;;5041581;28;20629;-68
2022/12/20 06:33:52;;;;;;;19.25;9.70;;;9.70;99.90;;;;;;5042188;28;20037;-69
2022/12/20 06:36:18;;;;;;;21.55;9.80;;;9.60;99.90;;;;;;5039828;28;20045;-67
2022/12/20 06:38:44;;;;;;;22.75;10.50;;;9.70;99.90;;;;;;5039445;28;20490;-67
2022/12/20 06:41:10;;;;;;;19.00;9.93;;;9.60;99.90;;;;;;5042309;28;20029;-68
2022/12/20 06:43:36;;;;;;;22.40;10.60;;;9.80;99.90;;;;;;5038272;28;20053;-68
2022/12/20 06:46:01;;;;;;;20.65;9.52;;;9.70;99.90;;;;;;5040999;28;20479;-67
2022/12/20 06:48:27;;;;;;;23.45;10.60;;;9.70;99.90;;;;;;5034883;28;20041;-67
2022/12/20 06:50:52;;;;;;;26.00;10.88;;;9.70;99.90;;;;;;5040001;28;20396;-67
2022/12/20 06:53:18;;;;;;;19.40;10.10;;;9.70;99.90;;;;;;5038023;28;20099;-67
2022/12/20 06:55:47;;;;;;;22.08;10.32;;;9.70;99.90;;;;;;5048162;28;20045;-67
2022/12/20 06:58:13;;;;;;;22.23;11.02;;;9.70;99.90;;;;;;5018533;28;20099;-67
2022/12/20 07:00:38;;;;;;;22.95;11.15;;;9.70;99.90;;;;;;5039072;28;20048;-67
2022/12/20 07:03:04;;;;;;;23.60;10.70;;;9.70;99.90;;;;;;5039265;28;20513;-66
2022/12/20 07:05:30;;;;;;;24.35;10.85;;;9.70;99.90;;;;;;5021748;28;20063;-66
2022/12/20 07:07:55;;;;;;;19.90;10.80;;;9.80;99.90;;;;;;5033430;28;20072;-68
2022/12/20 07:10:21;;;;;;;21.30;10.40;;;9.60;99.90;;;;;;5041272;28;20033;-68
2022/12/20 07:12:46;;;;;;;19.27;9.65;;;9.70;99.90;;;;;;5043090;28;20037;-66
2022/12/20 07:15:12;;;;;;;22.05;10.75;;;9.60;99.90;;;;;;5042494;28;20475;-67
2022/12/20 07:17:37;;;;;;;24.40;10.95;;;9.70;99.90;;;;;;5047637;28;20037;-66
2022/12/20 07:20:04;;;;;;;24.48;11.65;;;9.70;99.90;;;;;;5049030;28;20048;-66
2022/12/20 07:22:29;;;;;;;19.88;10.25;;;9.70;99.90;;;;;;5046516;28;20036;-68
2022/12/20 07:24:55;;;;;;;25.77;10.85;;;9.70;99.90;;;;;;5060388;28;20053;-67
2022/12/20 07:27:20;;;;;;;23.42;11.10;;;9.70;99.90;;;;;;5037093;28;20547;-68
2022/12/20 07:29:46;;;;;;;23.13;10.30;;;9.80;99.90;;;;;;5042802;28;20041;-69
2022/12/20 07:32:13;;;;;;;20.95;10.18;;;9.70;99.90;;;;;;5038272;28;20037;-67
2022/12/20 07:34:38;;;;;;;22.52;10.23;;;9.70;99.90;;;;;;5047644;28;20064;-67
2022/12/20 07:37:04;;;;;;;25.55;10.35;;;9.70;99.90;;;;;;5045579;28;20045;-67
2022/12/20 07:39:29;;;;;;;23.95;10.00;;;9.70;99.90;;;;;;5045498;28;20403;-66
2022/12/20 07:41:56;;;;;;;20.98;10.35;;;9.70;99.90;;;;;;5044100;28;20628;-68
2022/12/20 07:44:22;;;;;;;19.65;8.82;;;9.80;99.90;;;;;;5035481;28;20380;-66
2022/12/20 07:46:48;;;;;;;21.08;9.18;;;9.80;99.90;;;;;;5044513;28;20178;-68
2022/12/20 07:49:14;;;;;;;20.60;9.60;;;9.70;99.90;;;;;;5058801;28;20033;-67
2022/12/20 07:51:43;;;;;;;20.83;9.80;;;9.70;99.90;;;;;;5061364;28;20041;-66
2022/12/20 07:54:14;;;;;;;22.52;9.52;;;9.60;99.90;;;;;;5024254;28;20519;-66
2022/12/20 07:56:44;;;;;;;20.02;8.60;;;9.70;99.90;;;;;;5023718;28;20115;-67
2022/12/20 07:59:14;;;;;;;22.77;9.25;;;9.70;99.90;;;;;;5045192;28;20037;-67
2022/12/20 08:01:42;;;;;;;20.58;9.18;;;9.80;99.90;;;;;;5042155;28;20530;-66
2022/12/20 08:04:16;;;;;;;19.20;8.60;;;9.70;99.90;;;;;;5031729;28;20128;-66
2022/12/20 08:06:42;;;;;;;19.85;8.80;;;9.70;99.90;;;;;;5041595;28;20149;-66
2022/12/20 08:09:13;;;;;;;21.60;8.93;;;9.70;99.90;;;;;;5048200;28;20507;-66
2022/12/20 08:11:42;;;;;;;18.77;8.65;;;9.80;99.90;;;;;;5040521;28;20036;-66
2022/12/20 08:14:08;;;;;;;23.20;8.82;;;9.80;99.90;;;;;;5048533;28;20162;-66
2022/12/20 08:16:34;;;;;;;18.92;8.55;;;9.70;99.90;;;;;;5050580;28;20399;-66
2022/12/20 08:19:00;;;;;;;19.73;8.70;;;9.80;99.90;;;;;;5046032;28;20052;-66
2022/12/20 08:21:26;;;;;;;17.13;8.00;;;9.70;99.90;;;;;;5046799;28;20025;-66
2022/12/20 08:23:52;;;;;;;23.42;8.27;;;9.80;99.90;;;;;;5050290;28;20086;-68
2022/12/20 08:26:17;;;;;;;19.83;8.18;;;9.80;99.90;;;;;;5049852;28;20126;-68
2022/12/20 08:28:43;;;;;;;19.25;7.85;;;9.80;99.90;;;;;;5047058;28;20499;-67
2022/12/20 08:31:11;;;;;;;20.20;8.57;;;9.80;99.90;;;;;;5053230;28;20036;-66
2022/12/20 08:33:37;;;;;;;19.27;7.82;;;9.80;99.90;;;;;;5048618;28;20071;-66
2022/12/20 08:36:06;;;;;;;18.02;7.40;;;9.70;99.90;;;;;;5047865;28;20051;-66
2022/12/20 08:38:32;;;;;;;17.10;7.70;;;9.80;99.90;;;;;;5057117;28;20056;-66
2022/12/20 08:41:03;;;;;;;16.00;7.38;;;9.80;99.90;;;;;;5058155;28;20073;-69
2022/12/20 08:43:30;;;;;;;16.88;7.60;;;9.80;99.90;;;;;;5043039;28;20057;-67
2022/12/20 08:45:56;;;;;;;14.13;7.38;;;9.80;99.90;;;;;;5049459;28;20040;-66
2022/12/20 08:48:22;;;;;;;12.30;7.05;;;9.80;99.90;;;;;;5058263;28;20373;-67
2022/12/20 08:50:55;;;;;;;15.80;7.35;;;9.80;99.90;;;;;;5048231;28;20048;-66
2022/12/20 08:53:21;;;;;;;13.52;6.78;;;9.90;99.90;;;;;;5056450;28;20029;-69
2022/12/20 08:55:47;;;;;;;15.98;8.00;;;9.90;99.90;;;;;;5039595;28;20052;-67
2022/12/20 08:58:13;;;;;;;14.55;6.72;;;9.90;99.90;;;;;;5050792;28;20043;-66
2022/12/20 09:00:38;;;;;;;14.82;6.78;;;10.00;99.90;;;;;;5051080;28;20059;-66
2022/12/20 09:03:06;;;;;;;14.52;7.00;;;9.90;99.90;;;;;;5049699;28;20033;-66
2022/12/20 09:05:31;;;;;;;15.88;7.40;;;9.90;99.90;;;;;;5047252;28;20132;-69
2022/12/20 09:07:57;;;;;;;12.75;6.85;;;9.90;99.90;;;;;;5057305;28;20163;-67
2022/12/20 09:10:22;;;;;;;18.08;7.13;;;9.90;99.90;;;;;;5047018;28;20040;-68
2022/12/20 09:12:48;;;;;;;16.05;7.18;;;9.90;99.90;;;;;;5054156;28;20040;-68
2022/12/20 09:15:14;;;;;;;17.23;6.85;;;10.00;99.90;;;;;;5049981;28;20479;-67
2022/12/20 09:17:39;;;;;;;16.25;7.43;;;10.00;99.90;;;;;;5051494;28;20086;-66
2022/12/20 09:20:05;;;;;;;16.30;7.20;;;10.00;99.90;;;;;;5052482;28;20041;-67
2022/12/20 09:22:31;;;;;;;17.05;7.28;;;10.00;99.90;;;;;;5032743;28;20060;-67
2022/12/20 09:24:57;;;;;;;14.35;7.25;;;9.90;99.90;;;;;;5057396;28;20108;-69
2022/12/20 09:27:22;;;;;;;12.70;6.68;;;10.00;99.90;;;;;;5065874;28;20044;-66
2022/12/20 09:29:48;;;;;;;14.88;7.15;;;10.00;99.90;;;;;;5047214;28;20096;-68
2022/12/20 09:32:13;;;;;;;19.10;7.38;;;10.10;99.90;;;;;;5045202;28;20105;-67
2022/12/20 09:34:39;;;;;;;19.38;7.40;;;10.00;99.90;;;;;;5042809;28;20047;-67
2022/12/20 09:37:07;;;;;;;15.65;7.53;;;10.00;99.90;;;;;;5052933;28;20495;-67
2022/12/20 09:39:32;;;;;;;20.00;7.93;;;10.10;99.90;;;;;;5038555;28;20055;-67
2022/12/20 09:41:58;;;;;;;18.70;7.20;;;10.00;99.90;;;;;;5047621;28;20507;-67
2022/12/20 09:44:38;;;;;;;17.20;7.18;;;10.10;99.90;;;;;;5054122;28;20532;-69
2022/12/20 09:47:25;;;;;;;18.13;8.15;;;10.00;99.90;;;;;;5050256;28;20063;-69
2022/12/20 09:49:55;;;;;;;21.33;7.13;;;10.00;99.90;;;;;;5049672;28;20080;-66
2022/12/20 09:52:23;;;;;;;16.20;6.90;;;10.10;99.90;;;;;;5022746;28;20083;-65
2022/12/20 09:55:15;;;;;;;13.95;7.38;;;10.00;99.90;;;;;;5057150;28;20072;-67
2022/12/20 09:57:53;;;;;;;13.63;7.07;;;10.00;99.90;;;;;;5047820;28;20041;-66
2022/12/20 10:00:19;;;;;;;21.05;7.97;;;9.90;99.90;;;;;;5049098;28;20080;-68
2022/12/20 10:02:46;;;;;;;17.90;7.20;;;10.00;99.90;;;;;;5049328;28;20041;-69
2022/12/20 10:05:20;;;;;;;19.58;7.60;;;9.90;99.90;;;;;;5043174;28;20037;-71
2022/12/20 10:08:22;;;;;;;15.88;7.20;;;9.90;99.90;;;;;;5033578;28;20095;-68
2022/12/20 10:11:17;;;;;;;14.23;6.95;;;10.00;99.90;;;;;;5044597;28;20475;-69
2022/12/20 10:14:14;;;;;;;15.48;7.60;;;9.90;99.90;;;;;;5037796;28;20438;-70
2022/12/20 10:16:57;;;;;;;21.20;7.18;;;10.00;99.90;;;;;;5053774;28;20091;-67
2022/12/20 10:19:29;;;;;;;;;;;9.90;99.90;;;;;;5043503;28;20135;-69
2022/12/20 10:22:22;;;;;;;19.00;7.18;;;10.00;99.90;;;;;;5062510;28;19920;-69
2022/12/20 10:24:57;;;;;;;16.20;8.10;;;9.90;99.90;;;;;;5023432;28;20049;-70
2022/12/20 10:27:23;;;;;;;17.60;7.30;;;9.90;99.90;;;;;;5045497;28;20259;-69
2022/12/20 10:29:50;;;;;;;18.00;7.60;;;9.90;99.90;;;;;;5029482;28;20033;-70
2022/12/20 10:32:19;;;;;;;16.65;7.50;;;10.00;99.90;;;;;;5039073;28;20041;-69
2022/12/20 10:35:15;;;;;;;17.50;7.68;;;9.90;99.90;;;;;;5063922;28;20139;-71
2022/12/20 10:37:58;;;;;;;17.60;7.00;;;10.00;99.90;;;;;;5048182;28;20102;-67
2022/12/20 10:40:48;;;;;;;18.23;7.22;;;10.00;99.90;;;;;;5048850;28;20033;-68
2022/12/20 10:43:17;;;;;;;15.65;7.18;;;10.00;99.90;;;;;;5060671;28;20040;-68
2022/12/20 10:46:04;;;;;;;15.50;7.22;;;10.10;99.90;;;;;;5059127;28;20053;-72
2022/12/20 10:48:37;;;;;;;16.15;7.65;;;10.00;99.90;;;;;;5031874;28;20063;-68
2022/12/20 10:51:09;;;;;;;15.20;7.28;;;10.00;99.90;;;;;;5046510;28;20041;-69
2022/12/20 10:53:36;;;;;;;24.60;7.00;;;10.10;99.90;;;;;;5048671;28;20063;-70
2022/12/20 10:56:18;;;;;;;20.67;7.15;;;10.10;99.90;;;;;;5030738;28;20292;-69
2022/12/20 10:59:01;;;;;;;23.80;7.38;;;10.10;99.90;;;;;;5048039;28;20145;-69
2022/12/20 11:01:35;;;;;;;20.02;7.30;;;10.00;99.90;;;;;;5048543;28;20037;-69
2022/12/20 11:04:19;;;;;;;17.80;7.65;;;10.00;99.90;;;;;;5061412;28;20041;-68
2022/12/20 11:06:45;;;;;;;17.90;7.53;;;10.10;99.90;;;;;;5054138;28;20082;-69
2022/12/20 11:09:17;;;;;;;19.83;8.02;;;10.00;99.90;;;;;;5047281;28;20033;-68
2022/12/20 11:12:01;;;;;;;16.90;7.20;;;10.10;99.90;;;;;;5046957;28;20049;-69
2022/12/20 11:14:28;;;;;;;16.10;7.55;;;10.20;99.90;;;;;;5036778;28;20029;-69
2022/12/20 11:16:56;;;;;;;19.70;7.57;;;10.20;99.90;;;;;;5038548;28;20453;-69
2022/12/20 11:19:48;;;;;;;20.10;7.88;;;10.20;99.90;;;;;;5048374;28;20245;-68
2022/12/20 11:22:39;;;;;;;16.88;7.80;;;10.20;99.90;;;;;;5046324;28;20056;-71
2022/12/20 11:25:15;;;;;;;17.45;7.43;;;10.30;99.90;;;;;;5043906;28;20087;-68
2022/12/20 11:28:12;;;;;;;16.17;7.25;;;10.30;99.90;;;;;;5046261;28;20121;-68
2022/12/20 11:30:50;;;;;;;18.17;7.70;;;10.30;99.90;;;;;;5034785;28;20076;-70
2022/12/20 11:33:36;;;;;;;17.17;7.75;;;10.40;99.90;;;;;;5044583;28;20041;-70
2022/12/20 11:36:07;;;;;;;14.23;7.18;;;10.30;99.90;;;;;;5040922;28;20040;-71
2022/12/20 11:38:57;;;;;;;23.03;7.63;;;10.30;99.90;;;;;;5052888;28;20487;-70
2022/12/20 11:41:58;;;;;;;20.05;7.15;;;10.40;99.90;;;;;;5044669;28;20037;-69
2022/12/20 11:44:53;;;;;;;19.48;7.60;;;10.30;99.90;;;;;;5056883;28;20072;-71
2022/12/20 11:48:02;;;;;;;17.30;7.50;;;10.30;99.90;;;;;;5029347;28;20126;-73
2022/12/20 11:50:55;;;;;;;18.05;7.45;;;10.30;99.90;;;;;;5030978;28;20045;-71
2022/12/20 11:53:29;;;;;;;;;;;10.20;99.90;;;;;;5044460;28;20033;-69
2022/12/20 11:56:00;;;;;;;18.42;7.78;;;10.20;99.90;;;;;;5057336;28;20004;-68
2022/12/20 11:58:43;;;;;;;17.83;7.72;;;10.20;99.90;;;;;;5045924;28;20531;-70
2022/12/20 12:01:13;;;;;;;14.82;7.60;;;10.20;99.90;;;;;;5041317;28;20116;-69
2022/12/20 12:03:44;;;;;;;15.35;7.80;;;10.20;99.90;;;;;;5061730;28;20136;-71
2022/12/20 12:06:15;;;;;;;15.68;8.18;;;10.20;99.90;;;;;;5060260;28;20040;-71
2022/12/20 12:08:51;;;;;;;16.85;7.82;;;10.20;99.90;;;;;;5051072;28;20044;-70
2022/12/20 12:11:31;;;;;;;22.65;7.82;;;10.10;99.90;;;;;;5048908;28;20045;-71
2022/12/20 12:14:00;;;;;;;19.33;7.70;;;10.10;99.90;;;;;;5044914;28;20037;-71
2022/12/20 12:16:36;;;;;;;18.17;8.20;;;10.20;99.90;;;;;;5048174;28;20036;-71
2022/12/20 12:19:02;;;;;;;23.25;8.65;;;10.10;99.90;;;;;;5048851;28;20037;-71
2022/12/20 12:21:35;;;;;;;19.42;8.85;;;10.10;99.90;;;;;;5049598;28;20041;-71
2022/12/20 12:24:16;;;;;;;18.10;8.07;;;10.20;99.90;;;;;;5052606;28;20405;-70
2022/12/20 12:26:42;;;;;;;19.65;8.30;;;10.20;99.90;;;;;;5035650;28;20518;-70
2022/12/20 12:29:07;;;;;;;18.98;8.30;;;10.20;99.90;;;;;;5045272;28;20095;-71
2022/12/20 12:31:44;;;;;;;18.35;8.63;;;10.20;99.90;;;;;;5047132;28;20219;-71
2022/12/20 12:34:28;;;;;;;16.27;8.05;;;10.20;99.90;;;;;;5051003;28;20116;-71
2022/12/20 12:37:36;;;;;;;18.60;8.60;;;10.30;99.90;;;;;;5050297;28;20041;-72
2022/12/20 12:40:21;;;;;;;15.35;8.55;;;10.20;99.90;;;;;;5034455;28;20082;-70
2022/12/20 12:43:18;;;;;;;16.33;8.90;;;10.20;99.90;;;;;;5027837;28;20067;-71
2022/12/20 12:45:58;;;;;;;17.40;8.40;;;10.30;99.90;;;;;;5048041;28;20060;-70
2022/12/20 12:48:38;;;;;;;21.77;8.85;;;10.30;99.90;;;;;;5048800;28;20041;-71
2022/12/20 12:51:05;;;;;;;19.80;8.75;;;10.20;99.90;;;;;;5049455;28;20037;-71
2022/12/20 12:53:44;;;;;;;21.80;8.95;;;10.30;99.90;;;;;;5046810;28;20040;-71
2022/12/20 12:56:25;;;;;;;18.15;8.55;;;10.30;99.90;;;;;;5053319;28;20029;-70
2022/12/20 12:59:08;;;;;;;19.10;9.60;;;10.30;99.90;;;;;;5063568;28;20555;-70
2022/12/20 13:01:54;;;;;;;20.35;9.60;;;10.20;99.90;;;;;;5076143;28;20449;-71
2022/12/20 13:04:24;;;;;;;21.17;9.55;;;10.20;99.90;;;;;;5053078;28;20033;-71
2022/12/20 13:06:50;;;;;;;16.85;9.75;;;10.30;99.90;;;;;;5046078;28;20037;-71
2022/12/20 13:09:24;;;;;;;18.42;9.73;;;10.30;99.90;;;;;;5049014;28;20045;-71